createdAt,value
2024-02-08T00:02:10.062Z,98908.00
2024-02-08T00:04:38.283Z,98910.59
2024-02-08T00:08:07.887Z,98912.38
2024-02-08T00:10:34.507Z,98909.72
2024-02-08T00:13:01.066Z,98910.22
2024-02-08T00:15:30.462Z,98915.22
2024-02-08T00:17:57.977Z,98918.91
2024-02-08T00:20:25.176Z,98916.22
2024-02-08T00:22:54.823Z,98915.69
2024-02-08T00:25:24.521Z,98910.22
2024-02-08T00:27:53.305Z,98900.31
2024-02-08T00:30:20.308Z,98896.59
2024-02-08T00:32:47.661Z,98897.63
2024-02-08T00:35:20.975Z,98897.72
2024-02-08T00:37:48.702Z,98896.97
2024-02-08T00:40:19.028Z,98890.75
2024-02-08T00:42:48.746Z,98897.19
2024-02-08T00:45:16.680Z,98889.97
2024-02-08T00:47:43.166Z,98892.41
2024-02-08T00:50:10.072Z,98891.84
2024-02-08T00:52:37.605Z,98888.91
2024-02-08T00:55:04.422Z,98894.81
2024-02-08T00:57:33.595Z,98889.22
2024-02-08T01:00:01.117Z,98885.88
2024-02-08T01:02:30.785Z,98885.09
2024-02-08T01:04:57.510Z,98885.66
2024-02-08T01:07:24.129Z,98885.19
2024-02-08T01:09:50.661Z,98887.66
2024-02-08T01:12:19.939Z,98886.13
2024-02-08T01:14:49.192Z,98882.63
2024-02-08T01:17:15.949Z,98880.25
2024-02-08T01:19:43.270Z,98878.28
2024-02-08T01:22:09.854Z,98882.78
2024-02-08T01:24:36.293Z,98878.38
2024-02-08T01:27:02.768Z,98885.06
2024-02-08T01:29:29.354Z,98881.06
2024-02-08T01:31:55.960Z,98887.88
2024-02-08T01:34:30.480Z,98891.75
2024-02-08T01:37:00.712Z,98891.56
2024-02-08T01:39:27.315Z,98885.09
2024-02-08T01:41:53.931Z,98891.31
2024-02-08T01:44:22.736Z,98891.06
2024-02-08T01:46:49.960Z,98892.81
2024-02-08T01:49:24.052Z,98885.59
2024-02-08T01:52:01.188Z,98888.00
2024-02-08T01:54:30.000Z,98882.91
2024-02-08T01:57:00.072Z,98877.47
2024-02-08T01:59:28.952Z,98878.59
2024-02-08T02:01:58.759Z,98874.78
2024-02-08T02:04:25.274Z,98877.28
2024-02-08T02:06:51.941Z,98876.56
2024-02-08T02:09:26.066Z,98880.31
2024-02-08T02:11:56.273Z,98875.88
2024-02-08T02:14:30.392Z,98874.03
2024-02-08T02:17:13.458Z,98871.53
2024-02-08T02:19:41.262Z,98868.63
2024-02-08T02:22:10.025Z,98866.81
2024-02-08T02:24:38.092Z,98859.19
2024-02-08T02:27:06.705Z,98858.00
2024-02-08T02:29:34.564Z,98851.94
2024-02-08T02:32:02.688Z,98861.94
2024-02-08T02:34:32.027Z,98854.63
2024-02-08T02:36:59.802Z,98850.94
2024-02-08T02:39:32.171Z,98852.78
2024-02-08T02:41:59.853Z,98849.56
2024-02-08T02:44:28.953Z,98848.97
2024-02-08T02:46:57.936Z,98849.75
2024-02-08T02:49:25.114Z,98846.50
2024-02-08T02:51:53.407Z,98854.72
2024-02-08T02:54:23.597Z,98846.59
2024-02-08T02:56:51.645Z,98850.56
2024-02-08T02:59:19.191Z,98844.63
2024-02-08T03:01:50.367Z,98846.19
2024-02-08T03:04:17.765Z,98845.66
2024-02-08T03:06:46.698Z,98845.78
2024-02-08T03:09:16.820Z,98835.63
2024-02-08T03:11:44.502Z,98831.19
2024-02-08T03:14:11.590Z,98836.47
2024-02-08T03:16:38.869Z,98831.78
2024-02-08T03:19:09.282Z,98825.97
2024-02-08T03:21:41.292Z,98828.66
2024-02-08T03:24:11.398Z,98834.38
2024-02-08T03:26:42.047Z,98827.69
2024-02-08T03:29:12.704Z,98826.97
2024-02-08T03:31:47.228Z,98825.25
2024-02-08T03:34:31.565Z,98816.38
2024-02-08T03:36:58.775Z,98816.00
2024-02-08T03:39:28.828Z,98812.44
2024-02-08T03:41:57.254Z,98820.22
2024-02-08T03:44:23.899Z,98816.84
2024-02-08T03:46:53.276Z,98816.84
2024-02-08T03:49:20.279Z,98822.19
2024-02-08T03:51:49.631Z,98817.06
2024-02-08T03:54:19.671Z,98821.03
2024-02-08T03:56:51.088Z,98821.63
2024-02-08T03:59:28.346Z,98823.53
2024-02-08T04:02:02.444Z,98820.22
2024-02-08T04:05:00.945Z,98827.41
2024-02-08T04:08:03.262Z,98823.00
2024-02-08T04:10:36.097Z,98825.63
2024-02-08T04:13:21.520Z,98825.56
2024-02-08T04:16:06.936Z,98827.75
2024-02-08T04:18:52.958Z,98826.94
2024-02-08T04:21:38.353Z,98824.59
2024-02-08T04:24:23.822Z,98817.06
2024-02-08T04:27:08.662Z,98820.97
2024-02-08T04:29:53.492Z,98819.13
2024-02-08T04:32:38.623Z,98819.69
2024-02-08T04:35:24.315Z,98812.63
2024-02-08T04:38:09.848Z,98813.19
2024-02-08T04:40:55.134Z,98815.63
2024-02-08T04:43:40.295Z,98816.78
2024-02-08T04:46:25.232Z,98813.94
2024-02-08T04:49:10.052Z,98816.44
2024-02-08T04:51:55.098Z,98815.53
2024-02-08T04:54:21.610Z,98807.03
2024-02-08T04:56:48.312Z,98806.38
2024-02-08T05:01:44.254Z,98802.47
2024-02-08T05:04:10.801Z,98805.19
2024-02-08T05:06:37.454Z,98797.03
2024-02-08T05:09:04.150Z,98800.00
2024-02-08T05:11:30.939Z,98794.84
2024-02-08T05:14:04.026Z,98793.00
2024-02-08T05:16:37.859Z,98791.63
2024-02-08T05:19:10.793Z,98786.69
2024-02-08T05:21:42.976Z,98784.31
2024-02-08T05:24:09.954Z,98788.31
2024-02-08T05:26:36.787Z,98780.16
2024-02-08T05:29:03.399Z,98779.59
2024-02-08T05:31:31.245Z,98782.88
2024-02-08T05:33:58.369Z,98780.59
2024-02-08T05:36:25.466Z,98785.44
2024-02-08T05:38:57.615Z,98785.22
2024-02-08T05:41:24.453Z,98791.38
2024-02-08T05:43:53.031Z,98787.72
2024-02-08T05:46:29.911Z,98784.25
2024-02-08T05:49:05.650Z,98793.38
2024-02-08T05:51:33.327Z,98794.75
2024-02-08T05:54:03.591Z,98789.44
2024-02-08T05:56:31.762Z,98782.72
2024-02-08T05:59:02.556Z,98783.25
2024-02-08T06:01:32.764Z,98777.84
2024-02-08T06:04:03.489Z,98784.06
2024-02-08T06:06:43.603Z,98776.53
2024-02-08T06:09:10.760Z,98789.03
2024-02-08T06:11:40.378Z,98791.34
2024-02-08T06:14:14.151Z,98791.66
2024-02-08T06:16:49.400Z,98797.22
2024-02-08T06:19:16.965Z,98789.81
2024-02-08T06:21:44.508Z,98790.50
2024-02-08T06:24:24.497Z,98786.50
2024-02-08T06:26:57.082Z,98797.44
2024-02-08T06:29:28.095Z,98795.28
2024-02-08T06:32:04.066Z,98790.94
2024-02-08T06:34:53.057Z,98793.03
2024-02-08T06:37:31.015Z,98793.72
2024-02-08T06:39:58.955Z,98786.88
2024-02-08T06:42:41.522Z,98785.13
2024-02-08T06:45:26.150Z,98781.69
2024-02-08T06:47:58.152Z,98786.00
2024-02-08T06:50:43.169Z,98782.03
2024-02-08T06:53:27.870Z,98790.34
2024-02-08T06:56:13.354Z,98768.53
2024-02-08T06:59:01.256Z,98778.56
2024-02-08T07:01:47.149Z,98768.84
2024-02-08T07:04:32.384Z,98769.97
2024-02-08T07:07:17.553Z,98756.38
2024-02-08T07:10:02.392Z,98762.16
2024-02-08T07:12:47.361Z,98764.63
2024-02-08T07:15:32.222Z,98766.72
2024-02-08T07:18:17.319Z,98768.97
2024-02-08T07:21:02.397Z,98768.13
2024-02-08T07:23:47.319Z,98767.56
2024-02-08T07:26:35.751Z,98769.53
2024-02-08T07:29:21.773Z,98778.94
2024-02-08T07:32:07.326Z,98783.56
2024-02-08T07:34:53.142Z,98785.94
2024-02-08T07:37:19.960Z,98788.34
2024-02-08T07:40:02.117Z,98785.84
2024-02-08T07:42:42.599Z,98767.44
2024-02-08T07:45:14.097Z,98774.94
2024-02-08T07:47:41.427Z,98776.97
2024-02-08T07:50:09.545Z,98776.97
2024-02-08T07:52:56.872Z,98775.19
2024-02-08T07:55:43.307Z,98778.56
2024-02-08T07:58:10.114Z,98780.84
2024-02-08T08:00:39.579Z,98777.94
2024-02-08T08:03:11.054Z,98780.28
2024-02-08T08:05:42.752Z,98780.06
2024-02-08T08:08:25.615Z,98778.63
2024-02-08T08:11:07.189Z,98778.69
2024-02-08T08:13:54.725Z,98780.41
2024-02-08T08:16:48.133Z,98780.22
2024-02-08T08:19:21.039Z,98787.44
2024-02-08T08:22:05.133Z,98780.34
2024-02-08T08:24:44.353Z,98768.13
2024-02-08T08:27:29.038Z,98770.56
2024-02-08T08:29:59.965Z,98778.00
2024-02-08T08:32:33.665Z,98777.78
2024-02-08T08:35:21.444Z,98763.56
2024-02-08T08:38:00.759Z,98767.13
2024-02-08T08:40:40.444Z,98770.63
2024-02-08T08:43:20.341Z,98759.34
2024-02-08T08:45:51.845Z,98764.84
2024-02-08T08:48:22.441Z,98760.38
2024-02-08T08:50:58.932Z,98763.44
2024-02-08T08:53:29.860Z,98764.41
2024-02-08T08:55:57.082Z,98754.88
2024-02-08T08:58:28.882Z,98750.91
2024-02-08T09:01:14.930Z,98753.50
2024-02-08T09:03:42.168Z,98750.72
2024-02-08T09:06:13.285Z,98752.94
2024-02-08T09:08:56.277Z,98742.50
2024-02-08T09:11:26.171Z,98753.69
2024-02-08T09:13:54.279Z,98750.69
2024-02-08T09:16:24.986Z,98742.75
2024-02-08T09:19:03.347Z,98730.06
2024-02-08T09:21:34.781Z,98734.63
2024-02-08T09:24:05.790Z,98738.00
2024-02-08T09:26:50.278Z,98739.66
2024-02-08T09:29:28.685Z,98738.47
2024-02-08T09:31:59.843Z,98731.53
2024-02-08T09:34:42.317Z,98736.25
2024-02-08T09:37:10.262Z,98736.44
2024-02-08T09:39:54.976Z,98735.75
2024-02-08T09:42:31.583Z,98733.69
2024-02-08T09:45:17.448Z,98729.78
2024-02-08T09:47:54.263Z,98727.41
2024-02-08T09:50:37.093Z,98718.19
2024-02-08T09:53:20.501Z,98715.75
2024-02-08T09:55:56.338Z,98721.38
2024-02-08T09:58:42.939Z,98711.44
2024-02-08T10:01:24.068Z,98721.31
2024-02-08T10:04:06.366Z,98708.13
2024-02-08T10:06:47.050Z,98710.81
2024-02-08T10:09:33.988Z,98706.56
2024-02-08T10:12:07.992Z,98702.22
2024-02-08T10:14:35.194Z,98690.75
2024-02-08T10:17:26.228Z,98698.69
2024-02-08T10:20:29.961Z,98683.75
2024-02-08T10:23:10.477Z,98685.53
2024-02-08T10:25:55.965Z,98689.97
2024-02-08T10:28:25.257Z,98681.81
2024-02-08T10:30:58.934Z,98675.72
2024-02-08T10:33:26.179Z,98673.50
2024-02-08T10:35:59.486Z,98667.22
2024-02-08T10:38:31.288Z,98668.72
2024-02-08T10:40:59.112Z,98659.16
2024-02-08T10:43:26.512Z,98652.09
2024-02-08T10:45:55.799Z,98646.16
2024-02-08T10:48:24.589Z,98648.25
2024-02-08T10:50:51.750Z,98636.22
2024-02-08T10:53:38.663Z,98628.44
2024-02-08T10:56:15.489Z,98628.38
2024-02-08T10:59:01.399Z,98625.00
2024-02-08T11:01:39.153Z,98620.69
2024-02-08T11:04:18.966Z,98609.72
2024-02-08T11:07:09.468Z,98603.53
2024-02-08T11:09:37.124Z,98599.06
2024-02-08T11:12:11.553Z,98597.50
2024-02-08T11:14:44.457Z,98592.97
2024-02-08T11:17:21.631Z,98588.13
2024-02-08T11:19:50.964Z,98575.50
2024-02-08T11:22:36.115Z,98564.38
2024-02-08T11:25:20.434Z,98562.91
2024-02-08T11:27:51.060Z,98559.63
2024-02-08T11:30:21.842Z,98559.03
2024-02-08T11:33:03.649Z,98546.84
2024-02-08T11:35:36.448Z,98544.59
2024-02-08T11:38:11.867Z,98542.25
2024-02-08T11:40:38.560Z,98542.63
2024-02-08T11:43:09.293Z,98547.03
2024-02-08T11:45:36.397Z,98537.31
2024-02-08T11:48:05.604Z,98536.22
2024-02-08T11:50:37.791Z,98536.00
2024-02-08T11:53:07.494Z,98531.56
2024-02-08T11:55:36.987Z,98523.22
2024-02-08T11:58:11.280Z,98536.63
2024-02-08T12:00:46.728Z,98532.88
2024-02-08T12:03:17.811Z,98517.59
2024-02-08T12:05:53.039Z,98514.38
2024-02-08T12:08:20.512Z,98516.88
2024-02-08T12:10:52.282Z,98508.94
2024-02-08T12:13:27.128Z,98510.41
2024-02-08T12:15:57.955Z,98511.09
2024-02-08T12:18:30.014Z,98499.44
2024-02-08T12:20:59.236Z,98486.88
2024-02-08T12:23:31.765Z,98491.44
2024-02-08T12:26:02.887Z,98468.09
2024-02-08T12:28:33.792Z,98473.59
2024-02-08T12:31:00.737Z,98466.06
2024-02-08T12:33:31.888Z,98467.94
2024-02-08T12:36:01.286Z,98466.72
2024-02-08T12:38:28.388Z,98473.22
2024-02-08T12:41:02.489Z,98473.59
2024-02-08T12:43:29.041Z,98471.69
2024-02-08T12:45:56.007Z,98470.13
2024-02-08T12:48:22.850Z,98463.03
2024-02-08T12:50:54.015Z,98464.31
2024-02-08T12:53:22.174Z,98459.59
2024-02-08T12:55:49.161Z,98458.31
2024-02-08T12:58:19.703Z,98460.16
2024-02-08T13:01:05.892Z,98460.78
2024-02-08T13:03:35.501Z,98457.88
2024-02-08T13:06:05.394Z,98460.13
2024-02-08T13:08:35.293Z,98461.97
2024-02-08T13:11:02.804Z,98444.44
2024-02-08T13:13:30.215Z,98428.06
2024-02-08T13:16:06.492Z,98426.34
2024-02-08T13:18:33.516Z,98408.81
2024-02-08T13:21:01.426Z,98411.84
2024-02-08T13:23:31.210Z,98404.88
2024-02-08T13:25:59.172Z,98407.81
2024-02-08T13:28:26.412Z,98404.47
2024-02-08T13:30:54.643Z,98410.56
2024-02-08T13:33:22.127Z,98409.97
2024-02-08T13:35:56.756Z,98402.00
2024-02-08T13:38:37.892Z,98401.91
2024-02-08T13:41:34.047Z,98400.88
2024-02-08T13:44:01.100Z,98397.97
2024-02-08T13:46:43.074Z,98395.94
2024-02-08T13:49:16.611Z,98401.25
2024-02-08T13:51:47.665Z,98398.94
2024-02-08T13:54:29.879Z,98394.53
2024-02-08T13:57:06.887Z,98387.84
2024-02-08T13:59:42.856Z,98386.56
2024-02-08T14:02:15.669Z,98379.56
2024-02-08T14:05:00.475Z,98380.94
2024-02-08T14:07:32.136Z,98380.06
2024-02-08T14:10:04.376Z,98372.16
2024-02-08T14:12:36.544Z,98378.03
2024-02-08T14:15:07.854Z,98380.88
2024-02-08T14:17:45.456Z,98369.44
2024-02-08T14:20:36.244Z,98361.00
2024-02-08T14:23:12.279Z,98364.47
2024-02-08T14:25:49.743Z,98370.03
2024-02-08T14:28:25.746Z,98359.50
2024-02-08T14:30:56.915Z,98345.91
2024-02-08T14:33:27.291Z,98348.69
2024-02-08T14:36:08.793Z,98353.00
2024-02-08T14:38:47.476Z,98342.91
2024-02-08T14:41:36.863Z,98345.38
2024-02-08T14:44:13.116Z,98343.84
2024-02-08T14:46:49.622Z,98333.34
2024-02-08T14:49:19.335Z,98335.66
2024-02-08T14:51:53.656Z,98321.44
2024-02-08T14:54:20.488Z,98316.47
2024-02-08T14:57:04.949Z,98314.09
2024-02-08T14:59:50.850Z,98304.22
2024-02-08T15:02:23.882Z,98303.03
2024-02-08T15:04:55.379Z,98303.75
2024-02-08T15:07:41.468Z,98302.47
2024-02-08T15:10:11.265Z,98300.75
2024-02-08T15:12:54.221Z,98298.66
2024-02-08T15:15:30.918Z,98303.69
2024-02-08T15:18:12.591Z,98294.50
2024-02-08T15:20:46.349Z,98289.66
2024-02-08T15:23:32.676Z,98287.22
2024-02-08T15:26:04.777Z,98277.94
2024-02-08T15:28:43.129Z,98278.03
2024-02-08T15:31:39.169Z,98265.69
2024-02-08T15:34:20.694Z,98265.94
2024-02-08T15:37:13.340Z,98258.84
2024-02-08T15:39:39.990Z,98259.56
2024-02-08T15:42:19.534Z,98259.72
2024-02-08T15:44:48.530Z,98264.56
2024-02-08T15:47:16.656Z,98265.78
2024-02-08T15:49:46.669Z,98262.22
2024-02-08T15:52:17.155Z,98267.75
2024-02-08T15:54:46.166Z,98258.72
2024-02-08T15:57:14.107Z,98259.78
2024-02-08T15:59:46.863Z,98248.88
2024-02-08T16:02:19.184Z,98241.16
2024-02-08T16:04:52.509Z,98238.91
2024-02-08T16:07:29.045Z,98237.53
2024-02-08T16:09:59.140Z,98234.66
2024-02-08T16:12:48.317Z,98237.41
2024-02-08T16:15:18.803Z,98229.25
2024-02-08T16:18:11.452Z,98230.00
2024-02-08T16:20:40.374Z,98229.13
2024-02-08T16:23:15.079Z,98226.88
2024-02-08T16:25:46.013Z,98230.19
2024-02-08T16:28:21.903Z,98231.66
2024-02-08T16:31:01.770Z,98228.25
2024-02-08T16:33:42.504Z,98227.13
2024-02-08T16:36:27.908Z,98223.16
2024-02-08T16:38:59.120Z,98226.91
2024-02-08T16:41:32.663Z,98228.94
2024-02-08T16:44:04.978Z,98227.00
2024-02-08T16:46:38.892Z,98227.03
2024-02-08T16:49:07.642Z,98230.53
2024-02-08T16:51:46.347Z,98227.03
2024-02-08T16:54:21.089Z,98226.06
2024-02-08T16:56:48.933Z,98233.53
2024-02-08T16:59:28.567Z,98232.88
2024-02-08T17:02:28.114Z,98232.16
2024-02-08T17:05:17.427Z,98228.72
2024-02-08T17:07:44.604Z,98237.56
2024-02-08T17:10:23.491Z,98243.75
2024-02-08T17:13:09.609Z,98244.94
2024-02-08T17:15:50.027Z,98239.06
2024-02-08T17:18:25.513Z,98243.13
2024-02-08T17:21:06.512Z,98231.50
2024-02-08T17:24:02.893Z,98229.91
2024-02-08T17:26:37.690Z,98218.41
2024-02-08T17:29:11.712Z,98216.59
2024-02-08T17:31:44.566Z,98217.22
2024-02-08T17:34:13.941Z,98221.16
2024-02-08T17:36:47.163Z,98213.72
2024-02-08T17:39:36.587Z,98217.84
2024-02-08T17:42:09.141Z,98201.66
2024-02-08T17:44:41.022Z,98203.69
2024-02-08T17:47:11.598Z,98208.78
2024-02-08T17:49:38.668Z,98211.38
2024-02-08T17:52:07.710Z,98206.03
2024-02-08T17:54:46.328Z,98201.75
2024-02-08T17:57:13.793Z,98198.00
2024-02-08T17:59:44.709Z,98191.03
2024-02-08T18:02:15.993Z,98196.13
2024-02-08T18:04:43.436Z,98192.81
2024-02-08T18:07:14.084Z,98203.06
2024-02-08T18:09:43.430Z,98198.56
2024-02-08T18:12:35.231Z,98206.56
2024-02-08T18:15:14.257Z,98204.84
2024-02-08T18:17:46.930Z,98196.13
2024-02-08T18:20:16.857Z,98202.81
2024-02-08T18:22:46.335Z,98200.91
2024-02-08T18:25:22.435Z,98204.28
2024-02-08T18:27:49.312Z,98199.66
2024-02-08T18:30:19.789Z,98208.59
2024-02-08T18:32:48.056Z,98208.91
2024-02-08T18:35:18.129Z,98202.09
2024-02-08T18:37:48.176Z,98207.19
2024-02-08T18:40:27.685Z,98207.41
2024-02-08T18:42:58.214Z,98201.75
2024-02-08T18:45:28.406Z,98213.59
2024-02-08T18:48:04.972Z,98215.41
2024-02-08T18:50:31.680Z,98208.78
2024-02-08T18:52:59.817Z,98211.16
2024-02-08T18:55:40.363Z,98196.25
2024-02-08T18:58:10.228Z,98201.00
2024-02-08T19:00:38.411Z,98203.56
2024-02-08T19:03:08.842Z,98206.97
2024-02-08T19:05:42.222Z,98205.03
2024-02-08T19:08:15.179Z,98207.06
2024-02-08T19:10:44.793Z,98197.59
2024-02-08T19:13:11.661Z,98198.13
2024-02-08T19:15:38.176Z,98206.88
2024-02-08T19:18:16.079Z,98196.09
2024-02-08T19:20:45.468Z,98188.13
2024-02-08T19:23:13.499Z,98183.44
2024-02-08T19:25:41.257Z,98178.72
2024-02-08T19:28:08.351Z,98184.06
2024-02-08T19:30:35.041Z,98187.34
2024-02-08T19:33:06.128Z,98189.72
2024-02-08T19:35:35.010Z,98181.63
2024-02-08T19:38:04.917Z,98180.66
2024-02-08T19:40:32.975Z,98163.81
2024-02-08T19:43:04.498Z,98150.16
2024-02-08T19:45:34.614Z,98151.69
2024-02-08T19:48:02.062Z,98157.13
2024-02-08T19:50:30.006Z,98146.22
2024-02-08T19:52:58.864Z,98143.69
2024-02-08T19:55:31.703Z,98146.97
2024-02-08T19:57:59.556Z,98145.78
2024-02-08T20:00:32.273Z,98140.22
2024-02-08T20:03:21.802Z,98142.50
2024-02-08T20:05:49.101Z,98139.94
2024-02-08T20:08:17.479Z,98133.41
2024-02-08T20:10:47.427Z,98127.41
2024-02-08T20:13:16.181Z,98120.41
2024-02-08T20:15:43.597Z,98127.84
2024-02-08T20:18:15.128Z,98117.75
2024-02-08T20:20:42.053Z,98112.53
2024-02-08T20:23:20.624Z,98109.72
2024-02-08T20:25:49.842Z,98106.25
2024-02-08T20:28:17.365Z,98110.88
2024-02-08T20:30:49.234Z,98110.97
2024-02-08T20:33:17.291Z,98113.97
2024-02-08T20:35:44.223Z,98105.66
2024-02-08T20:38:13.251Z,98110.16
2024-02-08T20:40:41.993Z,98101.66
2024-02-08T20:43:22.416Z,98107.09
2024-02-08T20:45:52.669Z,98103.69
2024-02-08T20:48:20.361Z,98095.16
2024-02-08T20:50:52.277Z,98090.38
2024-02-08T20:53:18.970Z,98087.84
2024-02-08T20:55:48.448Z,98096.16
2024-02-08T20:58:20.637Z,98093.09
2024-02-08T21:00:52.864Z,98089.59
2024-02-08T21:03:27.017Z,98081.16
2024-02-08T21:05:56.023Z,98082.88
2024-02-08T21:08:24.786Z,98086.69
2024-02-08T21:10:53.453Z,98089.47
2024-02-08T21:13:20.457Z,98087.44
2024-02-08T21:15:50.778Z,98087.25
2024-02-08T21:18:20.791Z,98085.84
2024-02-08T21:20:50.459Z,98085.44
2024-02-08T21:23:19.234Z,98082.78
2024-02-08T21:25:47.425Z,98088.28
2024-02-08T21:28:15.024Z,98078.81
2024-02-08T21:30:43.873Z,98077.00
2024-02-08T21:33:11.430Z,98080.28
2024-02-08T21:35:38.558Z,98072.91
2024-02-08T21:38:06.052Z,98062.50
2024-02-08T21:40:41.471Z,98064.22
2024-02-08T21:43:16.845Z,98053.91
2024-02-08T21:45:45.403Z,98052.41
2024-02-08T21:48:12.246Z,98046.97
2024-02-08T21:50:41.607Z,98046.78
2024-02-08T21:53:08.159Z,98043.66
2024-02-08T21:55:34.792Z,98043.25
2024-02-08T21:58:01.841Z,98031.28
2024-02-08T22:00:33.905Z,98035.34
2024-02-08T22:03:00.940Z,98030.53
2024-02-08T22:05:28.342Z,98025.19
2024-02-08T22:07:55.400Z,98020.44
2024-02-08T22:10:22.170Z,98019.72
2024-02-08T22:12:48.824Z,98008.03
2024-02-08T22:15:19.833Z,98011.03
2024-02-08T22:17:50.085Z,98016.50
2024-02-08T22:20:17.477Z,98024.81
2024-02-08T22:22:45.394Z,98025.91
2024-02-08T22:25:16.643Z,98032.47
2024-02-08T22:27:45.453Z,98032.69
2024-02-08T22:30:13.057Z,98023.00
2024-02-08T22:32:45.007Z,98027.09
2024-02-08T22:35:12.348Z,98014.09
2024-02-08T22:37:42.172Z,98008.34
2024-02-08T22:40:12.207Z,98014.94
2024-02-08T22:42:39.166Z,98014.31
2024-02-08T22:45:10.805Z,98011.88
2024-02-08T22:47:43.433Z,98006.22
2024-02-08T22:50:14.670Z,98003.44
2024-02-08T22:52:53.611Z,97986.84
2024-02-08T22:55:24.768Z,97981.41
2024-02-08T22:57:56.577Z,97974.13
2024-02-08T23:00:26.614Z,97981.91
2024-02-08T23:02:57.441Z,97986.16
2024-02-08T23:05:28.230Z,97981.50
2024-02-08T23:07:55.143Z,97986.91
2024-02-08T23:10:21.784Z,97980.63
2024-02-08T23:12:49.216Z,97966.94
2024-02-08T23:15:17.100Z,97966.75
2024-02-08T23:17:44.054Z,97969.13
2024-02-08T23:20:15.203Z,97967.16
2024-02-08T23:22:41.917Z,97961.59
2024-02-08T23:25:11.597Z,97952.31
2024-02-08T23:27:38.772Z,97956.84
2024-02-08T23:30:10.564Z,97946.25
2024-02-08T23:32:39.667Z,97944.16
2024-02-08T23:35:13.405Z,97936.91
2024-02-08T23:37:41.743Z,97937.47
2024-02-08T23:40:15.535Z,97934.31
2024-02-08T23:42:43.197Z,97909.91
2024-02-08T23:45:13.508Z,97917.06
2024-02-08T23:47:41.017Z,97904.78
2024-02-08T23:50:10.463Z,97904.66
2024-02-08T23:52:38.871Z,97900.22
2024-02-08T23:55:07.068Z,97898.13
2024-02-08T23:57:37.623Z,97902.09
